createdAt,value
2018-02-11T00:00:17.907Z,11.27
2018-02-11T00:02:45.371Z,12.18
2018-02-11T00:05:12.856Z,11.82
2018-02-11T00:07:40.350Z,11.20
2018-02-11T00:10:07.837Z,11.48
2018-02-11T00:12:35.320Z,13.95
2018-02-11T00:15:02.802Z,12.25
2018-02-11T00:17:31.050Z,10.80
2018-02-11T00:19:58.517Z,9.80
2018-02-11T00:22:25.997Z,10.93
2018-02-11T00:24:54.237Z,11.85
2018-02-11T00:27:21.709Z,10.95
2018-02-11T00:29:49.180Z,12.98
2018-02-11T00:32:17.416Z,11.98
2018-02-11T00:34:44.887Z,11.93
2018-02-11T00:37:12.382Z,10.23
2018-02-11T00:39:39.842Z,10.25
2018-02-11T00:42:08.080Z,10.05
2018-02-11T00:44:35.552Z,9.75
2018-02-11T00:47:03.022Z,10.80
2018-02-11T00:49:31.263Z,10.90
2018-02-11T00:51:58.745Z,10.85
2018-02-11T00:54:26.226Z,10.60
2018-02-11T00:56:54.463Z,9.75
2018-02-11T00:59:21.927Z,10.10
2018-02-11T01:01:49.416Z,11.00
2018-02-11T01:04:17.644Z,9.68
2018-02-11T01:06:45.124Z,11.17
2018-02-11T01:09:12.599Z,10.65
2018-02-11T01:11:40.839Z,11.70
2018-02-11T01:14:08.316Z,10.82
2018-02-11T01:16:35.795Z,11.00
2018-02-11T01:19:04.026Z,13.18
2018-02-11T01:21:31.486Z,12.50
2018-02-11T01:23:58.958Z,12.43
2018-02-11T01:26:26.440Z,13.57
2018-02-11T01:28:54.672Z,12.30
2018-02-11T01:31:22.158Z,12.40
2018-02-11T01:33:49.622Z,12.07
2018-02-11T01:36:17.100Z,11.20
2018-02-11T01:38:45.333Z,11.02
2018-02-11T01:41:12.814Z,12.37
2018-02-11T01:43:40.280Z,10.98
2018-02-11T01:46:07.755Z,10.83
2018-02-11T01:48:35.976Z,11.47
2018-02-11T01:51:03.470Z,13.25
2018-02-11T01:53:30.941Z,13.70
2018-02-11T01:55:59.185Z,13.05
2018-02-11T01:58:26.667Z,14.67
2018-02-11T02:00:54.904Z,14.23
2018-02-11T02:03:22.373Z,13.45
2018-02-11T02:05:49.855Z,14.60
2018-02-11T02:08:17.334Z,13.10
2018-02-11T02:10:44.808Z,14.13
2018-02-11T02:13:12.282Z,12.67
2018-02-11T02:15:39.750Z,14.27
2018-02-11T02:18:07.222Z,13.57
2018-02-11T02:20:34.702Z,13.82
2018-02-11T02:23:02.179Z,13.45
2018-02-11T02:25:30.449Z,13.70
2018-02-11T02:27:58.709Z,14.48
2018-02-11T02:30:26.183Z,13.48
2018-02-11T02:32:54.423Z,12.45
2018-02-11T02:35:21.891Z,13.70
2018-02-11T02:37:49.365Z,13.40
2018-02-11T02:40:17.604Z,15.30
2018-02-11T02:42:45.078Z,14.03
2018-02-11T02:45:12.552Z,13.93
2018-02-11T02:47:40.026Z,16.15
2018-02-11T02:50:08.266Z,14.95
2018-02-11T02:52:35.736Z,15.93
2018-02-11T02:55:03.190Z,14.98
2018-02-11T02:57:30.682Z,14.35
2018-02-11T02:59:58.923Z,13.68
2018-02-11T03:02:26.394Z,14.23
2018-02-11T03:04:53.862Z,14.02
2018-02-11T03:07:22.128Z,13.93
2018-02-11T03:09:49.599Z,14.93
2018-02-11T03:12:17.842Z,14.98
2018-02-11T03:14:45.331Z,16.52
2018-02-11T03:17:13.564Z,14.40
2018-02-11T03:19:41.632Z,16.30
2018-02-11T03:22:09.356Z,16.77
2018-02-11T03:24:38.287Z,15.93
2018-02-11T03:27:06.256Z,16.23
2018-02-11T03:29:34.230Z,14.98
2018-02-11T03:32:02.195Z,16.50
2018-02-11T03:34:39.996Z,15.45
2018-02-11T03:37:08.284Z,15.50
2018-02-11T03:39:36.236Z,13.90
2018-02-11T03:42:03.716Z,15.73
2018-02-11T03:44:31.876Z,15.48
2018-02-11T03:46:59.841Z,15.45
2018-02-11T03:49:28.124Z,15.18
2018-02-11T03:51:56.294Z,16.87
2018-02-11T03:54:24.464Z,15.27
2018-02-11T03:56:52.646Z,16.95
2018-02-11T03:59:20.719Z,17.30
2018-02-11T04:01:48.232Z,14.60
2018-02-11T04:04:16.466Z,14.50
2018-02-11T04:06:43.930Z,15.38
2018-02-11T04:09:11.411Z,14.18
2018-02-11T04:11:38.888Z,14.98
2018-02-11T04:14:07.135Z,14.43
2018-02-11T04:16:34.611Z,14.45
2018-02-11T04:19:02.832Z,14.00
2018-02-11T04:21:30.322Z,14.40
2018-02-11T04:23:57.790Z,15.75
2018-02-11T04:26:25.265Z,14.70
2018-02-11T04:28:53.502Z,14.60
2018-02-11T04:31:20.990Z,14.23
2018-02-11T04:33:49.222Z,14.57
2018-02-11T04:36:16.711Z,14.65
2018-02-11T04:38:44.183Z,13.85
2018-02-11T04:41:11.649Z,15.90
2018-02-11T04:43:39.886Z,15.32
2018-02-11T04:46:07.368Z,13.20
2018-02-11T04:48:34.836Z,12.93
2018-02-11T04:51:03.083Z,14.02
2018-02-11T04:53:30.550Z,12.40
2018-02-11T04:55:58.037Z,11.65
2018-02-11T04:58:26.259Z,12.18
2018-02-11T05:00:53.791Z,13.50
2018-02-11T05:03:21.242Z,11.90
2018-02-11T05:05:48.710Z,12.32
2018-02-11T05:08:16.188Z,13.13
2018-02-11T05:10:43.666Z,12.95
2018-02-11T05:13:11.136Z,13.07
2018-02-11T05:15:39.280Z,12.40
2018-02-11T05:18:07.452Z,11.63
2018-02-11T05:20:34.957Z,12.13
2018-02-11T05:23:02.426Z,12.18
2018-02-11T05:25:30.658Z,12.40
2018-02-11T05:27:58.146Z,13.50
2018-02-11T05:30:25.614Z,12.75
2018-02-11T05:32:53.869Z,13.13
2018-02-11T05:35:21.351Z,12.55
2018-02-11T05:37:49.590Z,11.12
2018-02-11T05:40:17.060Z,12.00
2018-02-11T05:42:44.540Z,11.90
2018-02-11T05:45:12.788Z,11.95
2018-02-11T05:47:40.258Z,11.52
2018-02-11T05:50:07.718Z,11.40
2018-02-11T05:52:35.196Z,10.65
2018-02-11T05:55:03.434Z,11.30
2018-02-11T05:57:30.931Z,10.70
2018-02-11T05:59:59.162Z,11.25
2018-02-11T06:02:31.366Z,11.68
2018-02-11T06:04:58.841Z,12.52
2018-02-11T06:07:27.125Z,11.20
2018-02-11T06:09:54.668Z,10.73
2018-02-11T06:12:23.050Z,9.70
2018-02-11T06:14:51.427Z,10.38
2018-02-11T06:17:19.761Z,10.05
2018-02-11T06:19:47.329Z,11.05
2018-02-11T06:22:14.942Z,11.43
2018-02-11T06:24:43.228Z,11.07
2018-02-11T06:27:10.708Z,10.82
2018-02-11T06:29:38.255Z,11.65
2018-02-11T06:32:05.756Z,11.02
2018-02-11T06:34:34.208Z,11.27
2018-02-11T06:37:01.770Z,11.25
2018-02-11T06:39:29.257Z,11.07
2018-02-11T06:41:56.796Z,9.60
2018-02-11T06:44:24.294Z,10.53
2018-02-11T06:46:51.764Z,11.23
2018-02-11T06:49:19.997Z,10.43
2018-02-11T06:51:47.466Z,11.23
2018-02-11T06:54:14.945Z,10.32
2018-02-11T06:56:43.182Z,10.82
2018-02-11T06:59:10.655Z,10.13
2018-02-11T07:04:53.506Z,9.88
2018-02-11T07:07:20.982Z,10.57
2018-02-11T07:09:49.220Z,9.68
2018-02-11T07:12:16.694Z,10.15
2018-02-11T07:14:44.167Z,9.52
2018-02-11T07:17:11.637Z,10.07
2018-02-11T07:19:39.874Z,10.30
2018-02-11T07:22:07.339Z,9.10
2018-02-11T07:24:34.818Z,10.63
2018-02-11T07:27:03.047Z,9.43
2018-02-11T07:29:30.522Z,9.07
2018-02-11T07:32:03.862Z,10.18
2018-02-11T07:34:32.099Z,10.65
2018-02-11T07:36:59.566Z,10.20
2018-02-11T07:39:27.046Z,9.57
2018-02-11T07:41:55.283Z,9.50
2018-02-11T07:44:22.771Z,8.73
2018-02-11T07:47:00.063Z,9.88
2018-02-11T07:49:27.534Z,10.80
2018-02-11T07:51:55.011Z,8.68
2018-02-11T07:54:27.060Z,8.73
2018-02-11T07:56:54.527Z,8.35
2018-02-11T07:59:21.984Z,8.55
2018-02-11T08:01:49.450Z,8.15
2018-02-11T08:04:16.951Z,7.75
2018-02-11T08:06:44.422Z,9.00
2018-02-11T08:09:11.893Z,8.15
2018-02-11T08:11:40.129Z,9.20
2018-02-11T08:14:07.592Z,8.15
2018-02-11T08:16:35.064Z,9.27
2018-02-11T08:19:02.519Z,7.80
2018-02-11T08:21:30.015Z,9.20
2018-02-11T08:23:58.239Z,8.23
2018-02-11T08:26:25.822Z,8.80
2018-02-11T08:28:54.083Z,8.63
2018-02-11T08:31:21.552Z,7.87
2018-02-11T08:33:49.015Z,8.77
2018-02-11T08:36:16.487Z,8.10
2018-02-11T08:38:44.725Z,9.63
2018-02-11T08:41:12.202Z,8.85
2018-02-11T08:43:39.666Z,7.65
2018-02-11T08:46:07.147Z,7.85
2018-02-11T08:48:35.382Z,7.95
2018-02-11T08:51:02.855Z,7.80
2018-02-11T08:56:43.828Z,8.30
2018-02-11T08:59:11.299Z,6.57
2018-02-11T09:01:38.757Z,6.80
2018-02-11T09:04:06.240Z,6.55
2018-02-11T09:06:33.705Z,5.72
2018-02-11T09:09:01.938Z,5.45
2018-02-11T09:11:29.412Z,6.32
2018-02-11T09:13:56.900Z,6.03
2018-02-11T09:16:25.179Z,6.20
2018-02-11T09:18:53.416Z,5.68
2018-02-11T09:21:28.065Z,5.45
2018-02-11T09:23:56.298Z,5.90
2018-02-11T09:26:23.802Z,5.75
2018-02-11T09:28:52.044Z,6.00
2018-02-11T09:31:22.703Z,5.70
2018-02-11T09:33:50.954Z,6.40
2018-02-11T09:36:18.418Z,5.30
2018-02-11T09:38:45.908Z,5.97
2018-02-11T09:41:13.384Z,6.72
2018-02-11T09:43:40.852Z,5.90
2018-02-11T09:52:09.011Z,5.37
2018-02-11T09:54:36.538Z,5.25
2018-02-11T09:57:04.008Z,4.78
2018-02-11T09:59:31.478Z,4.47
2018-02-11T10:01:59.094Z,4.60
2018-02-11T10:04:26.583Z,4.62
2018-02-11T10:06:54.045Z,5.03
2018-02-11T10:09:21.516Z,4.87
2018-02-11T10:11:49.006Z,4.80
2018-02-11T10:14:16.471Z,4.70
2018-02-11T10:16:44.809Z,4.47
2018-02-11T10:19:12.287Z,4.57
2018-02-11T10:21:39.737Z,4.93
2018-02-11T10:24:07.224Z,4.37
2018-02-11T10:26:35.451Z,4.07
2018-02-11T10:29:02.922Z,4.22
2018-02-11T10:31:30.386Z,4.43
2018-02-11T10:33:57.906Z,4.20
2018-02-11T10:36:25.332Z,4.12
2018-02-11T10:38:53.572Z,4.33
2018-02-11T10:41:21.036Z,4.40
2018-02-11T10:43:48.515Z,4.43
2018-02-11T10:46:16.032Z,4.70
2018-02-11T10:48:43.513Z,3.72
2018-02-11T10:51:10.982Z,4.25
2018-02-11T10:53:38.458Z,4.37
2018-02-11T10:56:06.694Z,4.93
2018-02-11T10:58:34.160Z,4.73
2018-02-11T11:01:01.623Z,4.57
2018-02-11T11:03:29.112Z,4.43
2018-02-11T11:05:57.340Z,5.55
2018-02-11T11:08:24.806Z,5.07
2018-02-11T11:10:52.297Z,4.05
2018-02-11T11:13:20.598Z,3.80
2018-02-11T11:15:48.066Z,4.30
2018-02-11T11:18:15.531Z,4.12
2018-02-11T11:20:43.009Z,4.23
2018-02-11T11:23:10.464Z,3.40
2018-02-11T11:25:37.956Z,3.20
2018-02-11T11:28:06.208Z,3.27
2018-02-11T11:30:33.794Z,3.35
2018-02-11T11:33:01.248Z,3.93
2018-02-11T11:35:28.721Z,4.37
2018-02-11T11:37:56.967Z,3.73
2018-02-11T11:40:24.455Z,4.20
2018-02-11T11:42:52.698Z,3.87
2018-02-11T11:45:20.192Z,3.90
2018-02-11T11:47:48.436Z,4.00
2018-02-11T11:50:15.911Z,3.60
2018-02-11T11:52:43.380Z,4.00
2018-02-11T11:55:12.586Z,3.47
2018-02-11T11:57:40.819Z,3.57
2018-02-11T12:00:25.083Z,4.03
2018-02-11T12:02:52.541Z,3.50
2018-02-11T12:05:25.879Z,3.87
2018-02-11T12:07:53.332Z,3.47
2018-02-11T12:10:21.571Z,4.07
2018-02-11T12:12:49.035Z,4.57
2018-02-11T12:15:16.504Z,4.07
2018-02-11T12:17:43.964Z,4.00
2018-02-11T12:20:11.432Z,3.20
2018-02-11T12:22:39.659Z,3.80
2018-02-11T12:25:07.161Z,4.33
2018-02-11T12:27:34.616Z,3.73
2018-02-11T12:30:09.297Z,3.40
2018-02-11T12:32:36.770Z,3.80
2018-02-11T12:35:04.250Z,3.57
2018-02-11T12:37:31.717Z,3.30
2018-02-11T12:39:59.955Z,4.03
2018-02-11T12:42:27.419Z,3.57
2018-02-11T12:44:54.880Z,3.73
2018-02-11T12:47:22.368Z,4.77
2018-02-11T12:49:49.819Z,4.03
2018-02-11T12:52:17.278Z,3.87
2018-02-11T12:54:45.498Z,4.30
2018-02-11T12:57:12.957Z,3.90
2018-02-11T12:59:40.409Z,3.47
2018-02-11T13:02:07.876Z,4.50
2018-02-11T13:04:35.338Z,4.30
2018-02-11T13:07:02.794Z,4.73
2018-02-11T13:09:30.245Z,5.13
2018-02-11T13:11:57.720Z,5.47
2018-02-11T13:14:25.181Z,5.27
2018-02-11T13:16:52.651Z,5.33
2018-02-11T13:19:20.102Z,5.37
2018-02-11T13:21:47.553Z,4.87
2018-02-11T13:24:15.011Z,5.60
2018-02-11T13:26:42.482Z,4.90
2018-02-11T13:29:09.958Z,4.10
2018-02-11T13:31:37.422Z,5.50
2018-02-11T13:34:05.663Z,5.37
2018-02-11T13:36:33.134Z,4.63
2018-02-11T13:39:00.608Z,4.70
2018-02-11T13:41:28.070Z,4.53
2018-02-11T13:43:55.532Z,4.57
2018-02-11T13:46:23.762Z,3.73
2018-02-11T13:48:51.238Z,4.57
2018-02-11T13:51:18.709Z,4.57
2018-02-11T13:53:46.168Z,5.10
2018-02-11T13:56:14.447Z,4.73
2018-02-11T13:58:41.909Z,4.53
2018-02-11T14:01:09.373Z,6.07
2018-02-11T14:03:37.595Z,5.10
2018-02-11T14:06:05.052Z,5.70
2018-02-11T14:08:32.516Z,5.47
2018-02-11T14:10:59.974Z,4.10
2018-02-11T14:13:27.445Z,4.43
2018-02-11T14:15:54.906Z,4.20
2018-02-11T14:18:22.397Z,3.80
2018-02-11T14:20:50.651Z,3.90
2018-02-11T14:23:18.137Z,3.77
2018-02-11T14:25:46.355Z,3.83
2018-02-11T14:28:13.833Z,3.80
2018-02-11T14:30:41.295Z,3.73
2018-02-11T14:33:08.747Z,3.90
2018-02-11T14:35:36.203Z,4.43
2018-02-11T14:38:03.690Z,3.70
2018-02-11T14:40:31.156Z,4.10
2018-02-11T14:42:59.380Z,4.10
2018-02-11T14:45:26.854Z,3.53
2018-02-11T14:47:54.314Z,3.70
2018-02-11T14:50:21.781Z,4.23
2018-02-11T14:52:49.264Z,4.50
2018-02-11T14:55:17.501Z,4.20
2018-02-11T14:57:44.968Z,3.67
2018-02-11T15:00:13.175Z,4.13
2018-02-11T15:02:41.424Z,3.90
2018-02-11T15:05:08.901Z,4.20
2018-02-11T15:07:36.369Z,4.00
2018-02-11T15:10:04.606Z,3.73
2018-02-11T15:12:32.071Z,3.60
2018-02-11T15:14:59.554Z,3.97
2018-02-11T15:17:27.033Z,3.47
2018-02-11T15:19:54.507Z,3.30
2018-02-11T15:22:21.973Z,3.50
2018-02-11T15:24:49.457Z,3.23
2018-02-11T15:27:16.909Z,3.37
2018-02-11T15:29:44.373Z,3.30
2018-02-11T15:32:12.628Z,3.47
2018-02-11T15:34:40.124Z,2.90
2018-02-11T15:37:07.610Z,3.33
2018-02-11T15:39:35.877Z,3.50
2018-02-11T15:42:04.120Z,3.90
2018-02-11T15:44:31.588Z,3.30
2018-02-11T15:46:59.066Z,3.40
2018-02-11T15:49:27.332Z,3.00
2018-02-11T15:51:54.804Z,3.40
2018-02-11T15:54:23.038Z,3.30
2018-02-11T15:56:50.601Z,3.47
2018-02-11T15:59:18.065Z,3.67
2018-02-11T16:01:45.531Z,3.40
2018-02-11T16:04:12.981Z,3.63
2018-02-11T16:06:40.460Z,3.80
2018-02-11T16:09:07.908Z,3.73
2018-02-11T16:11:35.395Z,3.83
2018-02-11T16:14:04.534Z,3.80
2018-02-11T16:16:32.013Z,3.90
2018-02-11T16:18:59.473Z,3.80
2018-02-11T16:21:26.962Z,3.93
2018-02-11T16:23:55.211Z,4.30
2018-02-11T16:26:22.681Z,4.57
2018-02-11T16:28:50.163Z,3.80
2018-02-11T16:31:18.400Z,4.37
2018-02-11T16:33:45.877Z,3.40
2018-02-11T16:36:13.338Z,4.23
2018-02-11T16:38:41.580Z,3.80
2018-02-11T16:41:09.070Z,4.00
2018-02-11T16:43:36.550Z,4.00
2018-02-11T16:46:04.821Z,4.10
2018-02-11T16:48:33.055Z,4.10
2018-02-11T16:51:00.533Z,3.77
2018-02-11T16:53:28.007Z,3.70
2018-02-11T16:55:56.252Z,3.50
2018-02-11T16:58:23.718Z,3.30
2018-02-11T17:00:51.202Z,3.40
2018-02-11T17:03:19.455Z,3.60
2018-02-11T17:05:46.947Z,2.90
2018-02-11T17:08:16.072Z,3.30
2018-02-11T17:10:43.530Z,2.93
2018-02-11T17:13:10.981Z,3.03
2018-02-11T17:15:38.440Z,2.93
2018-02-11T17:18:05.903Z,3.13
2018-02-11T17:20:33.366Z,3.20
2018-02-11T17:23:00.879Z,3.83
2018-02-11T17:25:29.108Z,4.10
2018-02-11T17:27:56.599Z,4.93
2018-02-11T17:30:24.122Z,5.17
2018-02-11T17:32:51.622Z,5.00
2018-02-11T17:35:19.078Z,4.73
2018-02-11T17:37:46.547Z,7.57
2018-02-11T17:40:28.307Z,5.23
2018-02-11T17:42:55.786Z,4.10
2018-02-11T17:45:23.262Z,4.30
2018-02-11T17:47:50.754Z,4.10
2018-02-11T17:50:18.227Z,3.90
2018-02-11T17:52:45.691Z,3.77
2018-02-11T17:55:13.228Z,4.47
2018-02-11T17:57:40.620Z,3.67
2018-02-11T18:00:08.105Z,3.33
2018-02-11T18:02:36.337Z,3.60
2018-02-11T18:05:03.792Z,3.33
2018-02-11T18:07:31.254Z,3.93
2018-02-11T18:09:58.713Z,2.53
2018-02-11T18:12:26.178Z,2.70
2018-02-11T18:14:53.638Z,3.47
2018-02-11T18:17:21.091Z,2.83
2018-02-11T18:19:48.557Z,2.63
2018-02-11T18:22:16.001Z,3.07
2018-02-11T18:24:43.472Z,2.60
2018-02-11T18:27:10.927Z,2.67
2018-02-11T18:29:38.395Z,2.23
2018-02-11T18:32:05.864Z,2.03
2018-02-11T18:34:33.368Z,1.83
2018-02-11T18:37:04.593Z,2.10
2018-02-11T18:39:32.934Z,3.17
2018-02-11T18:42:00.473Z,2.80
2018-02-11T18:47:20.979Z,3.03
2018-02-11T18:49:48.436Z,2.37
2018-02-11T18:52:15.903Z,2.33
2018-02-11T18:54:43.349Z,2.33
2018-02-11T18:57:10.807Z,2.40
2018-02-11T18:59:38.255Z,2.60
2018-02-11T19:02:05.717Z,2.10
2018-02-11T19:04:33.941Z,2.40
2018-02-11T19:07:01.412Z,2.60
2018-02-11T19:09:29.645Z,2.27
2018-02-11T19:11:57.116Z,2.67
2018-02-11T19:14:24.577Z,2.03
2018-02-11T19:16:52.058Z,2.10
2018-02-11T19:19:20.277Z,2.10
2018-02-11T19:21:47.761Z,2.53
2018-02-11T19:24:15.217Z,2.37
2018-02-11T19:26:42.755Z,2.43
2018-02-11T19:29:10.196Z,2.30
2018-02-11T19:31:37.657Z,2.17
2018-02-11T19:34:05.125Z,2.67
2018-02-11T19:36:32.567Z,2.30
2018-02-11T19:39:00.052Z,2.30
2018-02-11T19:41:27.514Z,2.30
2018-02-11T19:43:55.018Z,2.20
2018-02-11T19:46:22.426Z,2.67
2018-02-11T19:48:49.891Z,2.07
2018-02-11T19:51:17.338Z,1.83
2018-02-11T19:53:44.800Z,2.47
2018-02-11T19:56:12.314Z,2.47
2018-02-11T19:58:39.789Z,2.30
2018-02-11T20:01:07.306Z,2.30
2018-02-11T20:03:34.739Z,2.40
2018-02-11T20:06:02.185Z,1.83
2018-02-11T20:08:29.634Z,2.17
2018-02-11T20:10:57.095Z,2.40
2018-02-11T20:13:24.549Z,2.67
2018-02-11T20:15:52.825Z,2.33
2018-02-11T20:18:20.654Z,2.13
2018-02-11T20:20:48.905Z,2.50
2018-02-11T20:23:16.362Z,2.30
2018-02-11T20:25:43.807Z,2.20
2018-02-11T20:28:11.268Z,1.77
2018-02-11T20:30:38.794Z,2.20
2018-02-11T20:33:06.346Z,2.47
2018-02-11T20:35:33.789Z,2.47
2018-02-11T20:38:02.517Z,2.20
2018-02-11T20:40:29.974Z,2.50
2018-02-11T20:42:57.424Z,2.63
2018-02-11T20:45:24.961Z,2.43
2018-02-11T20:47:52.489Z,2.53
2018-02-11T20:50:20.690Z,2.20
2018-02-11T20:52:48.201Z,2.40
2018-02-11T20:55:15.677Z,2.47
2018-02-11T20:57:43.111Z,2.23
2018-02-11T21:00:10.737Z,2.07
2018-02-11T21:02:38.197Z,2.40
2018-02-11T21:05:05.668Z,2.10
2018-02-11T21:07:33.119Z,2.57
2018-02-11T21:10:00.577Z,2.83
2018-02-11T21:12:31.954Z,2.73
2018-02-11T21:14:59.388Z,2.50
2018-02-11T21:17:27.596Z,2.13
2018-02-11T21:19:55.673Z,2.30
2018-02-11T21:22:25.558Z,2.20
2018-02-11T21:24:53.050Z,2.13
2018-02-11T21:27:20.537Z,2.20
2018-02-11T21:29:48.822Z,2.17
2018-02-11T21:32:16.294Z,2.13
2018-02-11T21:34:53.872Z,2.23
2018-02-11T21:37:22.129Z,2.17
2018-02-11T21:39:49.584Z,2.17
2018-02-11T21:42:18.327Z,2.30
2018-02-11T21:44:46.760Z,2.83
2018-02-11T21:47:15.820Z,2.20
2018-02-11T21:49:44.377Z,2.43
2018-02-11T21:52:17.648Z,2.50
2018-02-11T21:54:45.113Z,2.40
2018-02-11T21:57:12.704Z,2.50
2018-02-11T21:59:40.149Z,2.13
2018-02-11T22:02:07.622Z,2.20
2018-02-11T22:04:35.105Z,2.37
2018-02-11T22:07:02.572Z,2.10
2018-02-11T22:09:30.029Z,2.33
2018-02-11T22:11:58.219Z,2.30
2018-02-11T22:14:26.442Z,2.57
2018-02-11T22:16:53.926Z,2.23
2018-02-11T22:19:21.371Z,2.27
2018-02-11T22:21:48.851Z,1.80
2018-02-11T22:24:16.304Z,2.35
2018-02-11T22:26:43.769Z,2.50
2018-02-11T22:29:11.217Z,2.17
2018-02-11T22:31:42.773Z,2.03
2018-02-11T22:34:10.226Z,1.97
2018-02-11T22:36:37.688Z,2.67
2018-02-11T22:39:12.603Z,2.17
2018-02-11T22:41:40.062Z,2.45
2018-02-11T22:44:07.519Z,1.97
2018-02-11T22:46:36.042Z,2.10
2018-02-11T22:49:04.340Z,2.20
2018-02-11T22:51:32.589Z,2.43
2018-02-11T22:54:01.691Z,2.33
2018-02-11T22:56:29.913Z,2.17
2018-02-11T22:58:58.234Z,2.58
2018-02-11T23:01:26.466Z,2.30
2018-02-11T23:03:53.935Z,1.80
2018-02-11T23:06:21.882Z,2.07
2018-02-11T23:08:49.861Z,2.27
2018-02-11T23:11:17.829Z,2.00
2018-02-11T23:13:45.936Z,2.33
2018-02-11T23:16:14.070Z,2.07
2018-02-11T23:22:00.565Z,2.58
2018-02-11T23:24:29.394Z,2.47
2018-02-11T23:26:57.366Z,1.92
2018-02-11T23:29:25.426Z,2.00
2018-02-11T23:31:53.658Z,1.80
2018-02-11T23:34:22.596Z,2.10
2018-02-11T23:36:50.797Z,2.50
2018-02-11T23:39:19.760Z,2.20
2018-02-11T23:41:47.836Z,2.37
2018-02-11T23:44:15.907Z,2.28
2018-02-11T23:52:41.932Z,1.92
2018-02-11T23:55:10.661Z,2.20
2018-02-11T23:57:38.627Z,2.15
